sensor_id;sensor_type;location;lat;lon;timestamp;noise_LAeq;noise_LA_min;noise_LA_max;noise_LA01;noise_LA95
37162;Laerm;68342;52.598;13.450;2024-02-04T00:02:07;40.07;34.72;52.78;;
37162;Laerm;68342;52.598;13.450;2024-02-04T00:04:34;41.34;34.06;59.37;;
37162;Laerm;68342;52.598;13.450;2024-02-04T00:06:59;41.62;34.83;62.34;;
37162;Laerm;68342;52.598;13.450;2024-02-04T00:09:25;41.35;36.32;52.52;;
37162;Laerm;68342;52.598;13.450;2024-02-04T00:11:52;41.78;35.67;52.34;;
37162;Laerm;68342;52.598;13.450;2024-02-04T00:14:18;43.24;37.13;64.93;;
37162;Laerm;68342;52.598;13.450;2024-02-04T00:16:43;41.37;36.23;57.64;;
37162;Laerm;68342;52.598;13.450;2024-02-04T00:19:08;47.33;37.00;65.94;;
37162;Laerm;68342;52.598;13.450;2024-02-04T00:21:33;42.60;34.89;53.12;;
37162;Laerm;68342;52.598;13.450;2024-02-04T00:23:59;41.25;35.13;51.52;;
37162;Laerm;68342;52.598;13.450;2024-02-04T00:26:24;41.43;35.91;54.53;;
37162;Laerm;68342;52.598;13.450;2024-02-04T00:28:49;41.56;36.07;52.02;;
37162;Laerm;68342;52.598;13.450;2024-02-04T00:31:14;41.09;33.74;52.48;;
37162;Laerm;68342;52.598;13.450;2024-02-04T00:33:40;41.69;33.92;65.71;;
37162;Laerm;68342;52.598;13.450;2024-02-04T00:36:05;40.35;33.79;62.58;;
37162;Laerm;68342;52.598;13.450;2024-02-04T00:38:31;41.37;34.76;52.18;;
37162;Laerm;68342;52.598;13.450;2024-02-04T00:40:56;43.73;35.31;61.95;;
37162;Laerm;68342;52.598;13.450;2024-02-04T00:43:21;41.95;36.55;54.61;;
37162;Laerm;68342;52.598;13.450;2024-02-04T00:45:47;44.66;37.54;63.54;;
37162;Laerm;68342;52.598;13.450;2024-02-04T00:48:12;44.05;36.35;71.68;;
37162;Laerm;68342;52.598;13.450;2024-02-04T00:50:37;44.09;36.23;64.50;;
37162;Laerm;68342;52.598;13.450;2024-02-04T00:53:03;40.36;34.79;53.01;;
37162;Laerm;68342;52.598;13.450;2024-02-04T00:55:28;40.21;33.75;52.98;;
37162;Laerm;68342;52.598;13.450;2024-02-04T00:57:53;40.99;34.48;61.54;;
37162;Laerm;68342;52.598;13.450;2024-02-04T01:00:20;39.42;34.25;55.24;;
37162;Laerm;68342;52.598;13.450;2024-02-04T01:02:45;42.78;35.89;56.99;;
37162;Laerm;68342;52.598;13.450;2024-02-04T01:05:11;46.25;36.64;60.39;;
37162;Laerm;68342;52.598;13.450;2024-02-04T01:07:37;41.39;35.65;52.97;;
37162;Laerm;68342;52.598;13.450;2024-02-04T01:10:03;39.61;32.93;54.18;;
37162;Laerm;68342;52.598;13.450;2024-02-04T01:12:28;40.63;34.40;55.44;;
37162;Laerm;68342;52.598;13.450;2024-02-04T01:14:53;43.08;36.97;54.86;;
37162;Laerm;68342;52.598;13.450;2024-02-04T01:17:19;39.38;33.63;56.11;;
37162;Laerm;68342;52.598;13.450;2024-02-04T01:19:44;42.96;35.38;55.32;;
37162;Laerm;68342;52.598;13.450;2024-02-04T01:22:09;40.77;33.64;59.74;;
37162;Laerm;68342;52.598;13.450;2024-02-04T01:24:34;39.93;32.24;57.23;;
37162;Laerm;68342;52.598;13.450;2024-02-04T01:27:03;39.35;33.53;55.85;;
37162;Laerm;68342;52.598;13.450;2024-02-04T01:29:28;39.35;32.50;57.48;;
37162;Laerm;68342;52.598;13.450;2024-02-04T01:31:54;39.81;33.92;57.82;;
37162;Laerm;68342;52.598;13.450;2024-02-04T01:34:19;39.26;32.94;57.36;;
37162;Laerm;68342;52.598;13.450;2024-02-04T01:36:44;37.82;31.79;55.25;;
37162;Laerm;68342;52.598;13.450;2024-02-04T01:39:09;37.91;31.47;54.47;;
37162;Laerm;68342;52.598;13.450;2024-02-04T01:41:35;41.13;35.52;53.05;;
37162;Laerm;68342;52.598;13.450;2024-02-04T01:44:01;39.26;32.26;58.58;;
37162;Laerm;68342;52.598;13.450;2024-02-04T01:46:26;39.79;33.80;52.92;;
37162;Laerm;68342;52.598;13.450;2024-02-04T01:48:52;38.98;33.31;52.09;;
37162;Laerm;68342;52.598;13.450;2024-02-04T01:51:17;39.21;33.06;52.65;;
37162;Laerm;68342;52.598;13.450;2024-02-04T01:53:44;38.09;32.07;53.52;;
37162;Laerm;68342;52.598;13.450;2024-02-04T01:56:11;39.42;31.65;52.80;;
37162;Laerm;68342;52.598;13.450;2024-02-04T01:58:37;39.16;32.45;52.69;;
37162;Laerm;68342;52.598;13.450;2024-02-04T02:01:03;39.15;31.71;56.79;;
37162;Laerm;68342;52.598;13.450;2024-02-04T02:03:28;39.14;31.74;55.05;;
37162;Laerm;68342;52.598;13.450;2024-02-04T02:05:54;37.45;32.19;50.90;;
37162;Laerm;68342;52.598;13.450;2024-02-04T02:08:19;46.19;34.46;61.63;;
37162;Laerm;68342;52.598;13.450;2024-02-04T02:10:46;42.89;33.33;54.17;;
37162;Laerm;68342;52.598;13.450;2024-02-04T02:13:17;39.42;32.74;52.17;;
37162;Laerm;68342;52.598;13.450;2024-02-04T02:15:48;38.49;32.23;52.29;;
37162;Laerm;68342;52.598;13.450;2024-02-04T02:18:19;38.52;31.15;51.73;;
37162;Laerm;68342;52.598;13.450;2024-02-04T02:23:36;38.16;30.77;51.06;;
37162;Laerm;68342;52.598;13.450;2024-02-04T02:26:05;37.77;31.92;51.29;;
37162;Laerm;68342;52.598;13.450;2024-02-04T02:28:31;38.28;32.05;53.80;;
37162;Laerm;68342;52.598;13.450;2024-02-04T02:30:57;39.02;31.66;54.28;;
37162;Laerm;68342;52.598;13.450;2024-02-04T02:33:22;38.85;32.64;52.30;;
37162;Laerm;68342;52.598;13.450;2024-02-04T02:35:49;37.89;32.10;55.46;;
37162;Laerm;68342;52.598;13.450;2024-02-04T02:40:48;39.18;31.91;53.66;;
37162;Laerm;68342;52.598;13.450;2024-02-04T02:43:15;39.61;32.57;57.94;;
37162;Laerm;68342;52.598;13.450;2024-02-04T02:45:42;38.43;33.28;51.70;;
37162;Laerm;68342;52.598;13.450;2024-02-04T02:48:07;38.56;33.51;52.59;;
37162;Laerm;68342;52.598;13.450;2024-02-04T02:50:34;37.71;30.98;56.09;;
37162;Laerm;68342;52.598;13.450;2024-02-04T02:53:00;38.72;32.50;56.49;;
37162;Laerm;68342;52.598;13.450;2024-02-04T02:55:25;38.31;31.02;51.27;;
37162;Laerm;68342;52.598;13.450;2024-02-04T02:57:50;39.45;33.90;55.41;;
37162;Laerm;68342;52.598;13.450;2024-02-04T03:00:15;40.67;34.86;53.58;;
37162;Laerm;68342;52.598;13.450;2024-02-04T03:02:41;38.77;33.12;53.61;;
37162;Laerm;68342;52.598;13.450;2024-02-04T03:05:06;38.69;31.56;50.16;;
37162;Laerm;68342;52.598;13.450;2024-02-04T03:07:31;39.06;32.85;52.26;;
37162;Laerm;68342;52.598;13.450;2024-02-04T03:09:57;40.75;32.19;56.28;;
37162;Laerm;68342;52.598;13.450;2024-02-04T03:12:22;41.15;33.46;59.03;;
37162;Laerm;68342;52.598;13.450;2024-02-04T03:14:47;40.05;32.13;54.67;;
37162;Laerm;68342;52.598;13.450;2024-02-04T03:17:12;39.88;32.15;56.91;;
37162;Laerm;68342;52.598;13.450;2024-02-04T03:19:38;40.34;35.66;53.21;;
37162;Laerm;68342;52.598;13.450;2024-02-04T03:22:03;39.49;33.30;55.81;;
37162;Laerm;68342;52.598;13.450;2024-02-04T03:24:29;40.29;31.50;57.45;;
37162;Laerm;68342;52.598;13.450;2024-02-04T03:26:54;40.97;33.36;51.83;;
37162;Laerm;68342;52.598;13.450;2024-02-04T03:29:19;40.83;33.50;52.94;;
37162;Laerm;68342;52.598;13.450;2024-02-04T03:31:45;39.21;33.23;55.90;;
37162;Laerm;68342;52.598;13.450;2024-02-04T03:34:10;40.61;34.35;53.56;;
37162;Laerm;68342;52.598;13.450;2024-02-04T03:36:36;48.46;36.24;62.07;;
37162;Laerm;68342;52.598;13.450;2024-02-04T03:39:01;42.48;34.27;56.13;;
37162;Laerm;68342;52.598;13.450;2024-02-04T03:41:28;40.32;33.20;52.90;;
37162;Laerm;68342;52.598;13.450;2024-02-04T03:43:53;41.00;35.76;52.85;;
37162;Laerm;68342;52.598;13.450;2024-02-04T03:46:20;43.50;39.00;53.55;;
37162;Laerm;68342;52.598;13.450;2024-02-04T03:48:45;40.16;33.15;57.43;;
37162;Laerm;68342;52.598;13.450;2024-02-04T03:51:17;41.44;33.95;58.29;;
37162;Laerm;68342;52.598;13.450;2024-02-04T03:53:43;40.42;34.59;51.97;;
37162;Laerm;68342;52.598;13.450;2024-02-04T03:56:09;41.26;36.18;52.93;;
37162;Laerm;68342;52.598;13.450;2024-02-04T03:58:34;42.19;37.27;54.81;;
37162;Laerm;68342;52.598;13.450;2024-02-04T04:00:59;41.29;32.64;51.78;;
37162;Laerm;68342;52.598;13.450;2024-02-04T04:03:25;40.60;32.98;53.71;;
37162;Laerm;68342;52.598;13.450;2024-02-04T04:05:51;41.67;36.54;52.80;;
37162;Laerm;68342;52.598;13.450;2024-02-04T04:08:16;42.79;36.09;53.69;;
37162;Laerm;68342;52.598;13.450;2024-02-04T04:10:43;44.45;36.90;61.96;;
37162;Laerm;68342;52.598;13.450;2024-02-04T04:13:08;42.02;36.17;54.64;;
37162;Laerm;68342;52.598;13.450;2024-02-04T04:15:33;41.98;35.99;56.18;;
37162;Laerm;68342;52.598;13.450;2024-02-04T04:17:58;44.05;35.55;57.32;;
37162;Laerm;68342;52.598;13.450;2024-02-04T04:20:25;41.97;35.88;61.93;;
37162;Laerm;68342;52.598;13.450;2024-02-04T04:22:50;40.32;33.81;55.44;;
37162;Laerm;68342;52.598;13.450;2024-02-04T04:25:16;40.55;34.25;53.72;;
37162;Laerm;68342;52.598;13.450;2024-02-04T04:27:42;42.43;36.72;59.06;;
37162;Laerm;68342;52.598;13.450;2024-02-04T04:30:08;42.16;36.31;55.92;;
37162;Laerm;68342;52.598;13.450;2024-02-04T04:32:34;42.79;34.68;56.08;;
37162;Laerm;68342;52.598;13.450;2024-02-04T04:34:59;38.91;33.04;52.74;;
37162;Laerm;68342;52.598;13.450;2024-02-04T04:37:25;40.97;34.92;55.10;;
37162;Laerm;68342;52.598;13.450;2024-02-04T04:39:50;41.01;34.66;53.31;;
37162;Laerm;68342;52.598;13.450;2024-02-04T04:42:15;42.04;35.79;53.00;;
37162;Laerm;68342;52.598;13.450;2024-02-04T04:44:40;42.00;33.67;52.51;;
37162;Laerm;68342;52.598;13.450;2024-02-04T04:47:06;40.02;33.21;53.69;;
37162;Laerm;68342;52.598;13.450;2024-02-04T04:49:31;40.03;34.55;56.53;;
37162;Laerm;68342;52.598;13.450;2024-02-04T04:51:56;42.17;35.16;53.84;;
37162;Laerm;68342;52.598;13.450;2024-02-04T04:54:22;41.08;34.94;54.37;;
37162;Laerm;68342;52.598;13.450;2024-02-04T04:56:47;40.96;34.95;57.89;;
37162;Laerm;68342;52.598;13.450;2024-02-04T04:59:12;41.51;36.15;57.86;;
37162;Laerm;68342;52.598;13.450;2024-02-04T05:01:44;43.23;36.83;52.16;;
37162;Laerm;68342;52.598;13.450;2024-02-04T05:04:09;41.42;35.90;55.66;;
37162;Laerm;68342;52.598;13.450;2024-02-04T05:06:34;42.55;37.16;54.58;;
37162;Laerm;68342;52.598;13.450;2024-02-04T05:09:00;40.92;33.97;55.42;;
37162;Laerm;68342;52.598;13.450;2024-02-04T05:11:25;41.74;34.98;50.69;;
37162;Laerm;68342;52.598;13.450;2024-02-04T05:13:51;42.70;35.09;53.84;;
37162;Laerm;68342;52.598;13.450;2024-02-04T05:16:16;41.66;36.05;53.76;;
37162;Laerm;68342;52.598;13.450;2024-02-04T05:18:41;42.24;34.37;60.23;;
37162;Laerm;68342;52.598;13.450;2024-02-04T05:21:06;43.39;38.57;54.81;;
37162;Laerm;68342;52.598;13.450;2024-02-04T05:23:36;42.15;35.59;59.07;;
37162;Laerm;68342;52.598;13.450;2024-02-04T05:26:04;42.96;37.06;57.37;;
37162;Laerm;68342;52.598;13.450;2024-02-04T05:28:30;42.57;36.37;56.12;;
37162;Laerm;68342;52.598;13.450;2024-02-04T05:30:55;42.83;36.98;58.52;;
37162;Laerm;68342;52.598;13.450;2024-02-04T05:33:20;40.75;34.07;54.04;;
37162;Laerm;68342;52.598;13.450;2024-02-04T05:35:46;41.29;34.30;57.62;;
37162;Laerm;68342;52.598;13.450;2024-02-04T05:38:11;41.20;36.70;54.45;;
37162;Laerm;68342;52.598;13.450;2024-02-04T05:40:36;41.53;35.20;57.17;;
37162;Laerm;68342;52.598;13.450;2024-02-04T05:43:01;41.30;34.61;52.35;;
37162;Laerm;68342;52.598;13.450;2024-02-04T05:45:32;41.36;35.67;55.09;;
37162;Laerm;68342;52.598;13.450;2024-02-04T05:47:57;42.07;36.40;51.69;;
37162;Laerm;68342;52.598;13.450;2024-02-04T05:50:22;41.56;35.83;50.46;;
37162;Laerm;68342;52.598;13.450;2024-02-04T05:52:48;40.29;35.15;53.90;;
37162;Laerm;68342;52.598;13.450;2024-02-04T05:55:14;40.91;35.39;53.62;;
37162;Laerm;68342;52.598;13.450;2024-02-04T05:57:39;42.36;37.23;54.62;;
37162;Laerm;68342;52.598;13.450;2024-02-04T06:00:05;40.51;34.42;55.77;;
37162;Laerm;68342;52.598;13.450;2024-02-04T06:02:31;43.14;35.85;53.48;;
37162;Laerm;68342;52.598;13.450;2024-02-04T06:04:56;43.37;36.96;55.19;;
37162;Laerm;68342;52.598;13.450;2024-02-04T06:07:22;43.30;36.20;54.40;;
37162;Laerm;68342;52.598;13.450;2024-02-04T06:09:47;43.06;34.76;57.46;;
37162;Laerm;68342;52.598;13.450;2024-02-04T06:12:12;42.65;34.63;58.85;;
37162;Laerm;68342;52.598;13.450;2024-02-04T06:14:38;42.80;37.31;61.43;;
37162;Laerm;68342;52.598;13.450;2024-02-04T06:17:05;41.38;35.51;53.62;;
37162;Laerm;68342;52.598;13.450;2024-02-04T06:19:30;43.66;37.38;58.56;;
37162;Laerm;68342;52.598;13.450;2024-02-04T06:21:55;42.81;36.66;56.95;;
37162;Laerm;68342;52.598;13.450;2024-02-04T06:24:20;45.38;36.31;61.22;;
37162;Laerm;68342;52.598;13.450;2024-02-04T06:26:46;43.63;35.39;57.11;;
37162;Laerm;68342;52.598;13.450;2024-02-04T06:29:11;43.30;36.08;58.87;;
37162;Laerm;68342;52.598;13.450;2024-02-04T06:31:36;42.31;36.66;60.05;;
37162;Laerm;68342;52.598;13.450;2024-02-04T06:34:01;42.33;36.99;55.55;;
37162;Laerm;68342;52.598;13.450;2024-02-04T06:36:27;42.37;36.08;50.43;;
37162;Laerm;68342;52.598;13.450;2024-02-04T06:38:52;42.65;35.90;56.66;;
37162;Laerm;68342;52.598;13.450;2024-02-04T06:41:17;43.00;35.41;55.92;;
37162;Laerm;68342;52.598;13.450;2024-02-04T06:43:42;46.87;35.54;64.02;;
37162;Laerm;68342;52.598;13.450;2024-02-04T06:46:08;44.63;35.42;58.35;;
37162;Laerm;68342;52.598;13.450;2024-02-04T06:48:33;43.71;38.96;58.75;;
37162;Laerm;68342;52.598;13.450;2024-02-04T06:50:58;43.40;35.55;57.65;;
37162;Laerm;68342;52.598;13.450;2024-02-04T06:53:23;44.75;38.18;60.30;;
37162;Laerm;68342;52.598;13.450;2024-02-04T06:55:49;43.93;37.66;54.87;;
37162;Laerm;68342;52.598;13.450;2024-02-04T06:58:17;43.36;35.49;55.25;;
37162;Laerm;68342;52.598;13.450;2024-02-04T07:00:42;42.45;35.36;58.00;;
37162;Laerm;68342;52.598;13.450;2024-02-04T07:03:07;43.62;37.23;55.89;;
37162;Laerm;68342;52.598;13.450;2024-02-04T07:05:33;46.24;37.88;55.37;;
37162;Laerm;68342;52.598;13.450;2024-02-04T07:08:02;44.10;38.48;55.45;;
37162;Laerm;68342;52.598;13.450;2024-02-04T07:10:27;42.85;37.03;52.60;;
37162;Laerm;68342;52.598;13.450;2024-02-04T07:12:52;42.80;37.08;55.76;;
37162;Laerm;68342;52.598;13.450;2024-02-04T07:15:17;43.52;37.87;63.19;;
37162;Laerm;68342;52.598;13.450;2024-02-04T07:17:43;45.31;37.71;55.90;;
37162;Laerm;68342;52.598;13.450;2024-02-04T07:20:08;43.91;37.21;56.43;;
37162;Laerm;68342;52.598;13.450;2024-02-04T07:22:33;43.88;38.15;52.85;;
37162;Laerm;68342;52.598;13.450;2024-02-04T07:25:00;43.05;37.91;51.70;;
37162;Laerm;68342;52.598;13.450;2024-02-04T07:27:25;44.72;39.34;63.87;;
37162;Laerm;68342;52.598;13.450;2024-02-04T07:29:50;42.76;38.22;55.47;;
37162;Laerm;68342;52.598;13.450;2024-02-04T07:32:16;44.54;38.79;57.22;;
37162;Laerm;68342;52.598;13.450;2024-02-04T07:34:41;45.41;38.43;61.01;;
37162;Laerm;68342;52.598;13.450;2024-02-04T07:37:06;45.68;38.93;59.46;;
37162;Laerm;68342;52.598;13.450;2024-02-04T07:39:31;42.66;38.39;53.94;;
37162;Laerm;68342;52.598;13.450;2024-02-04T07:41:57;43.47;37.81;57.15;;
37162;Laerm;68342;52.598;13.450;2024-02-04T07:44:26;43.57;38.90;53.35;;
37162;Laerm;68342;52.598;13.450;2024-02-04T07:46:51;43.72;37.16;54.53;;
37162;Laerm;68342;52.598;13.450;2024-02-04T07:49:16;44.34;38.77;54.78;;
37162;Laerm;68342;52.598;13.450;2024-02-04T07:51:41;44.94;38.14;54.97;;
37162;Laerm;68342;52.598;13.450;2024-02-04T07:54:07;44.81;39.27;55.68;;
37162;Laerm;68342;52.598;13.450;2024-02-04T07:56:32;45.25;39.60;55.41;;
37162;Laerm;68342;52.598;13.450;2024-02-04T07:58:57;43.89;39.29;57.55;;
37162;Laerm;68342;52.598;13.450;2024-02-04T08:01:23;47.49;38.99;68.49;;
37162;Laerm;68342;52.598;13.450;2024-02-04T08:03:49;45.66;41.14;59.17;;
37162;Laerm;68342;52.598;13.450;2024-02-04T08:06:14;45.26;40.24;54.40;;
37162;Laerm;68342;52.598;13.450;2024-02-04T08:08:39;45.09;39.08;54.17;;
37162;Laerm;68342;52.598;13.450;2024-02-04T08:11:06;45.27;40.01;55.70;;
37162;Laerm;68342;52.598;13.450;2024-02-04T08:13:31;56.19;40.78;76.12;;
37162;Laerm;68342;52.598;13.450;2024-02-04T08:15:56;46.59;40.18;58.50;;
37162;Laerm;68342;52.598;13.450;2024-02-04T08:18:21;46.85;39.86;52.91;;
37162;Laerm;68342;52.598;13.450;2024-02-04T08:20:47;46.59;41.02;59.35;;
37162;Laerm;68342;52.598;13.450;2024-02-04T08:23:12;46.87;41.58;62.72;;
37162;Laerm;68342;52.598;13.450;2024-02-04T08:25:37;47.38;42.62;55.21;;
37162;Laerm;68342;52.598;13.450;2024-02-04T08:28:03;46.50;41.79;55.54;;
37162;Laerm;68342;52.598;13.450;2024-02-04T08:30:28;47.49;43.29;59.60;;
37162;Laerm;68342;52.598;13.450;2024-02-04T08:32:56;46.94;41.37;58.06;;
37162;Laerm;68342;52.598;13.450;2024-02-04T08:35:22;45.62;41.74;55.57;;
37162;Laerm;68342;52.598;13.450;2024-02-04T08:37:47;45.61;40.66;54.88;;
37162;Laerm;68342;52.598;13.450;2024-02-04T08:40:16;47.05;40.93;58.55;;
37162;Laerm;68342;52.598;13.450;2024-02-04T08:42:41;47.91;42.88;64.67;;
37162;Laerm;68342;52.598;13.450;2024-02-04T08:45:06;46.88;41.29;61.27;;
37162;Laerm;68342;52.598;13.450;2024-02-04T08:47:32;46.27;40.75;54.56;;
37162;Laerm;68342;52.598;13.450;2024-02-04T08:49:57;46.93;42.02;63.12;;
37162;Laerm;68342;52.598;13.450;2024-02-04T08:52:22;57.91;42.22;69.11;;
37162;Laerm;68342;52.598;13.450;2024-02-04T08:54:49;50.53;40.08;62.72;;
37162;Laerm;68342;52.598;13.450;2024-02-04T08:57:15;47.91;41.81;61.02;;
37162;Laerm;68342;52.598;13.450;2024-02-04T08:59:41;47.54;42.34;54.96;;
37162;Laerm;68342;52.598;13.450;2024-02-04T09:02:07;45.25;40.45;60.27;;
37162;Laerm;68342;52.598;13.450;2024-02-04T09:04:32;47.22;42.91;57.19;;
37162;Laerm;68342;52.598;13.450;2024-02-04T09:07:08;46.52;42.09;64.16;;
37162;Laerm;68342;52.598;13.450;2024-02-04T09:09:33;47.82;42.74;59.42;;
37162;Laerm;68342;52.598;13.450;2024-02-04T09:11:59;47.12;41.38;60.34;;
37162;Laerm;68342;52.598;13.450;2024-02-04T09:14:24;47.75;42.77;57.29;;
37162;Laerm;68342;52.598;13.450;2024-02-04T09:16:49;46.37;41.36;54.03;;
37162;Laerm;68342;52.598;13.450;2024-02-04T09:19:15;45.78;41.82;56.53;;
37162;Laerm;68342;52.598;13.450;2024-02-04T09:21:40;47.23;43.06;55.61;;
37162;Laerm;68342;52.598;13.450;2024-02-04T09:24:05;47.05;41.86;55.62;;
37162;Laerm;68342;52.598;13.450;2024-02-04T09:26:31;47.65;42.55;62.57;;
37162;Laerm;68342;52.598;13.450;2024-02-04T09:28:56;46.80;41.81;53.01;;
37162;Laerm;68342;52.598;13.450;2024-02-04T09:31:21;45.86;40.83;57.29;;
37162;Laerm;68342;52.598;13.450;2024-02-04T09:33:46;47.58;43.44;55.90;;
37162;Laerm;68342;52.598;13.450;2024-02-04T09:36:12;48.10;43.92;61.27;;
37162;Laerm;68342;52.598;13.450;2024-02-04T09:38:37;47.35;42.72;59.28;;
37162;Laerm;68342;52.598;13.450;2024-02-04T09:41:02;47.78;42.77;56.27;;
37162;Laerm;68342;52.598;13.450;2024-02-04T09:43:33;47.03;42.61;59.43;;
37162;Laerm;68342;52.598;13.450;2024-02-04T09:46:00;46.81;42.90;59.03;;
37162;Laerm;68342;52.598;13.450;2024-02-04T09:48:25;48.36;42.53;59.51;;
37162;Laerm;68342;52.598;13.450;2024-02-04T09:50:52;48.45;43.65;59.44;;
37162;Laerm;68342;52.598;13.450;2024-02-04T09:53:20;49.12;44.55;67.70;;
37162;Laerm;68342;52.598;13.450;2024-02-04T09:55:46;48.86;43.40;63.03;;
37162;Laerm;68342;52.598;13.450;2024-02-04T09:58:12;48.14;43.39;55.89;;
37162;Laerm;68342;52.598;13.450;2024-02-04T10:00:38;47.52;42.80;57.78;;
37162;Laerm;68342;52.598;13.450;2024-02-04T10:03:05;47.27;43.04;52.10;;
37162;Laerm;68342;52.598;13.450;2024-02-04T10:05:30;49.04;42.94;68.53;;
37162;Laerm;68342;52.598;13.450;2024-02-04T10:07:56;49.36;44.45;61.15;;
37162;Laerm;68342;52.598;13.450;2024-02-04T10:10:21;48.27;42.86;59.94;;
37162;Laerm;68342;52.598;13.450;2024-02-04T10:12:56;47.21;42.41;54.90;;
37162;Laerm;68342;52.598;13.450;2024-02-04T10:15:21;47.36;43.96;55.53;;
37162;Laerm;68342;52.598;13.450;2024-02-04T10:17:46;48.87;43.44;57.04;;
37162;Laerm;68342;52.598;13.450;2024-02-04T10:20:12;48.77;45.04;57.10;;
37162;Laerm;68342;52.598;13.450;2024-02-04T10:22:37;48.38;44.46;60.73;;
37162;Laerm;68342;52.598;13.450;2024-02-04T10:25:06;50.44;44.24;64.58;;
37162;Laerm;68342;52.598;13.450;2024-02-04T10:27:32;56.99;42.87;80.62;;
37162;Laerm;68342;52.598;13.450;2024-02-04T10:29:58;48.83;44.80;63.44;;
37162;Laerm;68342;52.598;13.450;2024-02-04T10:32:23;53.02;45.07;67.74;;
37162;Laerm;68342;52.598;13.450;2024-02-04T10:34:48;51.56;44.98;67.85;;
37162;Laerm;68342;52.598;13.450;2024-02-04T10:37:14;53.17;46.40;66.05;;
37162;Laerm;68342;52.598;13.450;2024-02-04T10:39:39;51.20;44.71;64.79;;
37162;Laerm;68342;52.598;13.450;2024-02-04T10:42:04;51.21;45.65;63.63;;
37162;Laerm;68342;52.598;13.450;2024-02-04T10:44:31;48.07;43.66;57.53;;
37162;Laerm;68342;52.598;13.450;2024-02-04T10:47:00;49.44;43.91;62.58;;
37162;Laerm;68342;52.598;13.450;2024-02-04T10:49:30;49.85;45.64;59.92;;
37162;Laerm;68342;52.598;13.450;2024-02-04T10:51:58;52.03;46.32;64.35;;
37162;Laerm;68342;52.598;13.450;2024-02-04T10:54:24;50.95;43.92;63.42;;
37162;Laerm;68342;52.598;13.450;2024-02-04T10:56:56;49.71;43.21;63.98;;
37162;Laerm;68342;52.598;13.450;2024-02-04T10:59:30;50.68;45.18;64.05;;
37162;Laerm;68342;52.598;13.450;2024-02-04T11:01:56;50.82;45.02;65.27;;
37162;Laerm;68342;52.598;13.450;2024-02-04T11:04:22;52.47;45.48;69.27;;
37162;Laerm;68342;52.598;13.450;2024-02-04T11:06:48;51.84;44.90;64.08;;
37162;Laerm;68342;52.598;13.450;2024-02-04T11:09:14;49.90;45.11;66.19;;
37162;Laerm;68342;52.598;13.450;2024-02-04T11:11:40;51.97;45.49;65.27;;
37162;Laerm;68342;52.598;13.450;2024-02-04T11:14:08;50.34;43.90;63.87;;
37162;Laerm;68342;52.598;13.450;2024-02-04T11:24:12;52.87;45.78;71.37;;
37162;Laerm;68342;52.598;13.450;2024-02-04T11:26:43;50.37;44.71;63.68;;
37162;Laerm;68342;52.598;13.450;2024-02-04T11:29:09;50.49;43.94;67.34;;
37162;Laerm;68342;52.598;13.450;2024-02-04T11:31:35;49.01;45.36;59.93;;
37162;Laerm;68342;52.598;13.450;2024-02-04T11:34:03;49.63;45.33;62.19;;
37162;Laerm;68342;52.598;13.450;2024-02-04T11:36:29;49.27;43.84;63.75;;
37162;Laerm;68342;52.598;13.450;2024-02-04T11:38:54;48.78;44.52;58.13;;
37162;Laerm;68342;52.598;13.450;2024-02-04T11:41:23;49.14;44.07;57.13;;
37162;Laerm;68342;52.598;13.450;2024-02-04T11:46:17;49.02;45.27;56.30;;
37162;Laerm;68342;52.598;13.450;2024-02-04T11:48:51;51.10;45.08;64.09;;
37162;Laerm;68342;52.598;13.450;2024-02-04T11:51:16;51.62;46.55;66.51;;
37162;Laerm;68342;52.598;13.450;2024-02-04T11:53:42;49.95;45.75;61.17;;
37162;Laerm;68342;52.598;13.450;2024-02-04T11:56:08;49.32;44.43;57.55;;
37162;Laerm;68342;52.598;13.450;2024-02-04T11:58:34;49.04;45.93;63.39;;
37162;Laerm;68342;52.598;13.450;2024-02-04T12:01:00;49.23;44.47;59.47;;
37162;Laerm;68342;52.598;13.450;2024-02-04T12:03:29;51.01;43.98;70.55;;
37162;Laerm;68342;52.598;13.450;2024-02-04T12:05:55;48.70;45.09;53.91;;
37162;Laerm;68342;52.598;13.450;2024-02-04T12:08:20;50.39;45.23;64.16;;
37162;Laerm;68342;52.598;13.450;2024-02-04T12:10:46;50.16;45.21;59.59;;
37162;Laerm;68342;52.598;13.450;2024-02-04T12:13:13;50.53;45.42;62.02;;
37162;Laerm;68342;52.598;13.450;2024-02-04T12:15:38;51.50;45.65;61.50;;
37162;Laerm;68342;52.598;13.450;2024-02-04T12:18:10;53.33;46.08;71.89;;
37162;Laerm;68342;52.598;13.450;2024-02-04T12:20:36;51.40;46.00;65.18;;
37162;Laerm;68342;52.598;13.450;2024-02-04T12:23:02;54.44;45.69;76.03;;
37162;Laerm;68342;52.598;13.450;2024-02-04T12:25:28;50.28;45.28;58.62;;
37162;Laerm;68342;52.598;13.450;2024-02-04T12:27:55;52.66;46.23;65.44;;
37162;Laerm;68342;52.598;13.450;2024-02-04T12:30:22;51.84;47.26;65.19;;
37162;Laerm;68342;52.598;13.450;2024-02-04T12:32:57;56.30;47.48;82.94;;
37162;Laerm;68342;52.598;13.450;2024-02-04T12:35:23;53.46;48.01;65.01;;
37162;Laerm;68342;52.598;13.450;2024-02-04T12:37:49;50.23;45.22;60.16;;
37162;Laerm;68342;52.598;13.450;2024-02-04T12:40:20;49.55;44.26;55.76;;
37162;Laerm;68342;52.598;13.450;2024-02-04T12:42:46;49.95;44.41;58.77;;
37162;Laerm;68342;52.598;13.450;2024-02-04T12:45:16;51.81;46.50;62.58;;
37162;Laerm;68342;52.598;13.450;2024-02-04T12:47:42;52.17;48.44;61.90;;
37162;Laerm;68342;52.598;13.450;2024-02-04T12:50:07;57.30;47.38;71.69;;
37162;Laerm;68342;52.598;13.450;2024-02-04T12:52:32;54.84;48.28;70.84;;
37162;Laerm;68342;52.598;13.450;2024-02-04T12:55:03;52.96;45.27;66.49;;
37162;Laerm;68342;52.598;13.450;2024-02-04T12:57:29;53.23;47.04;68.71;;
37162;Laerm;68342;52.598;13.450;2024-02-04T13:00:03;53.82;47.38;67.86;;
37162;Laerm;68342;52.598;13.450;2024-02-04T13:02:30;51.12;46.42;63.64;;
37162;Laerm;68342;52.598;13.450;2024-02-04T13:04:55;51.86;45.95;63.01;;
37162;Laerm;68342;52.598;13.450;2024-02-04T13:07:21;51.53;47.24;67.98;;
37162;Laerm;68342;52.598;13.450;2024-02-04T13:09:57;51.86;47.24;64.16;;
37162;Laerm;68342;52.598;13.450;2024-02-04T13:12:22;52.22;46.15;68.77;;
37162;Laerm;68342;52.598;13.450;2024-02-04T13:14:47;52.84;47.07;62.72;;
37162;Laerm;68342;52.598;13.450;2024-02-04T13:17:13;51.69;46.77;65.73;;
37162;Laerm;68342;52.598;13.450;2024-02-04T13:19:38;51.08;45.85;59.31;;
37162;Laerm;68342;52.598;13.450;2024-02-04T13:22:04;51.41;45.52;59.81;;
37162;Laerm;68342;52.598;13.450;2024-02-04T13:24:31;51.08;46.07;61.41;;
37162;Laerm;68342;52.598;13.450;2024-02-04T13:26:56;51.75;44.99;66.03;;
37162;Laerm;68342;52.598;13.450;2024-02-04T13:29:22;50.51;46.02;62.94;;
37162;Laerm;68342;52.598;13.450;2024-02-04T13:31:47;51.57;46.16;63.99;;
37162;Laerm;68342;52.598;13.450;2024-02-04T13:34:12;51.88;47.22;65.41;;
37162;Laerm;68342;52.598;13.450;2024-02-04T13:36:38;53.81;45.60;72.14;;
37162;Laerm;68342;52.598;13.450;2024-02-04T13:39:03;51.85;46.43;64.36;;
37162;Laerm;68342;52.598;13.450;2024-02-04T13:41:30;51.84;47.20;64.71;;